createdAt,value
2023-03-12T00:00:27.945Z,27.44
2023-03-12T00:00:57.960Z,27.49
2023-03-12T00:01:30.469Z,27.53
2023-03-12T00:01:58.022Z,27.51
2023-03-12T00:02:28.097Z,27.53
2023-03-12T00:02:58.164Z,27.48
2023-03-12T00:03:28.125Z,27.48
2023-03-12T00:03:58.283Z,27.53
2023-03-12T00:04:28.300Z,27.49
2023-03-12T00:04:58.392Z,27.44
2023-03-12T00:05:28.417Z,27.51
2023-03-12T00:06:03.932Z,27.49
2023-03-12T00:06:28.465Z,27.49
2023-03-12T00:06:58.510Z,27.49
2023-03-12T00:07:28.525Z,27.48
2023-03-12T00:07:58.550Z,27.46
2023-03-12T00:08:28.594Z,27.44
2023-03-12T00:08:58.614Z,27.49
2023-03-12T00:09:28.645Z,27.51
2023-03-12T00:09:58.690Z,27.49
2023-03-12T00:10:28.701Z,27.51
2023-03-12T00:10:58.723Z,27.51
2023-03-12T00:11:28.752Z,27.48
2023-03-12T00:11:58.781Z,27.47
2023-03-12T00:12:28.801Z,27.51
2023-03-12T00:12:58.839Z,27.51
2023-03-12T00:13:28.851Z,27.47
2023-03-12T00:13:58.906Z,27.48
2023-03-12T00:14:28.902Z,27.51
2023-03-12T00:14:58.926Z,27.48
2023-03-12T00:15:28.941Z,27.49
2023-03-12T00:15:59.117Z,27.48
2023-03-12T00:16:29.178Z,27.48
2023-03-12T00:16:59.157Z,27.49
2023-03-12T00:17:29.276Z,27.48
2023-03-12T00:17:59.390Z,27.46
2023-03-12T00:18:29.513Z,27.49
2023-03-12T00:18:59.628Z,27.48
2023-03-12T00:19:29.632Z,27.53
2023-03-12T00:19:59.727Z,27.41
2023-03-12T00:20:29.839Z,27.46
2023-03-12T00:20:59.953Z,27.46
2023-03-12T00:21:29.989Z,27.46
2023-03-12T00:22:00.135Z,27.46
2023-03-12T00:22:30.104Z,27.46
2023-03-12T00:23:00.218Z,27.44
2023-03-12T00:23:30.343Z,27.44
2023-03-12T00:24:00.452Z,27.46
2023-03-12T00:24:30.566Z,27.46
2023-03-12T00:25:00.583Z,27.46
2023-03-12T00:25:30.590Z,27.43
2023-03-12T00:26:00.617Z,27.43
2023-03-12T00:26:30.641Z,27.43
2023-03-12T00:27:00.679Z,27.48
2023-03-12T00:27:30.699Z,27.40
2023-03-12T00:28:00.723Z,27.45
2023-03-12T00:28:30.748Z,27.40
2023-03-12T00:29:00.797Z,27.38
2023-03-12T00:29:30.815Z,27.51
2023-03-12T00:30:00.856Z,27.44
2023-03-12T00:30:30.854Z,27.40
2023-03-12T00:31:00.921Z,27.42
2023-03-12T00:31:30.952Z,27.40
2023-03-12T00:32:00.975Z,27.51
2023-03-12T00:32:31.013Z,27.44
2023-03-12T00:33:01.026Z,27.41
2023-03-12T00:33:31.056Z,27.44
2023-03-12T00:34:01.078Z,27.44
2023-03-12T00:34:31.098Z,27.40
2023-03-12T00:35:01.137Z,27.45
2023-03-12T00:35:31.191Z,27.45
2023-03-12T00:36:01.352Z,27.49
2023-03-12T00:36:31.268Z,27.43
2023-03-12T00:37:01.276Z,27.42
2023-03-12T00:37:31.302Z,27.42
2023-03-12T00:38:01.333Z,27.37
2023-03-12T00:38:31.358Z,27.38
2023-03-12T00:39:01.413Z,27.38
2023-03-12T00:39:31.409Z,27.38
2023-03-12T00:40:01.448Z,27.41
2023-03-12T00:40:31.464Z,27.43
2023-03-12T00:41:01.494Z,27.41
2023-03-12T00:41:31.530Z,27.46
2023-03-12T00:42:01.540Z,27.40
2023-03-12T00:42:31.567Z,27.44
2023-03-12T00:43:01.618Z,27.40
2023-03-12T00:43:31.643Z,27.46
2023-03-12T00:44:01.704Z,27.40
2023-03-12T00:44:31.755Z,27.40
2023-03-12T00:45:01.759Z,27.40
2023-03-12T00:45:31.786Z,27.46
2023-03-12T00:46:01.812Z,27.43
2023-03-12T00:46:31.981Z,27.37
2023-03-12T00:47:02.059Z,27.40
2023-03-12T00:47:32.002Z,27.43
2023-03-12T00:48:02.014Z,27.38
2023-03-12T00:48:32.039Z,27.40
2023-03-12T00:49:02.071Z,27.40
2023-03-12T00:49:32.109Z,27.38
2023-03-12T00:50:02.127Z,27.41
2023-03-12T00:50:32.156Z,27.38
2023-03-12T00:51:02.189Z,27.43
2023-03-12T00:51:32.224Z,27.40
2023-03-12T00:52:02.250Z,27.41
2023-03-12T00:52:32.272Z,27.40
2023-03-12T00:53:02.304Z,27.39
2023-03-12T00:53:32.321Z,27.43
2023-03-12T00:54:02.348Z,27.39
2023-03-12T00:54:32.385Z,27.38
2023-03-12T00:55:02.403Z,27.35
2023-03-12T00:55:32.427Z,27.38
2023-03-12T00:56:02.449Z,27.39
2023-03-12T00:56:32.487Z,27.40
2023-03-12T00:57:02.498Z,27.44
2023-03-12T00:57:32.523Z,27.33
2023-03-12T00:58:02.560Z,27.41
2023-03-12T00:58:32.602Z,27.41
2023-03-12T00:59:02.624Z,27.40
2023-03-12T00:59:32.651Z,27.36
2023-03-12T01:00:02.702Z,27.36
2023-03-12T01:00:32.836Z,27.37
2023-03-12T01:01:02.804Z,27.41
2023-03-12T01:01:32.830Z,27.40
2023-03-12T01:02:02.852Z,27.41
2023-03-12T01:02:32.885Z,27.41
2023-03-12T01:03:02.913Z,27.43
2023-03-12T01:03:32.975Z,27.38
2023-03-12T01:04:03.000Z,27.39
2023-03-12T01:04:33.004Z,27.39
2023-03-12T01:05:03.027Z,27.40
2023-03-12T01:05:35.149Z,27.43
2023-03-12T01:06:03.059Z,27.39
2023-03-12T01:06:33.086Z,27.41
2023-03-12T01:07:03.124Z,27.40
2023-03-12T01:07:33.143Z,27.46
2023-03-12T01:08:03.172Z,27.43
2023-03-12T01:08:33.196Z,27.39
2023-03-12T01:09:03.232Z,27.41
2023-03-12T01:09:33.257Z,27.41
2023-03-12T01:10:03.300Z,27.38
2023-03-12T01:10:33.308Z,27.39
2023-03-12T01:11:03.332Z,27.41
2023-03-12T01:11:33.348Z,27.44
2023-03-12T01:12:03.373Z,27.46
2023-03-12T01:12:33.400Z,27.39
2023-03-12T01:13:03.425Z,27.33
2023-03-12T01:13:33.455Z,27.39
2023-03-12T01:14:03.481Z,27.36
2023-03-12T01:14:33.496Z,27.36
2023-03-12T01:15:03.517Z,27.41
2023-03-12T01:15:33.648Z,27.38
2023-03-12T01:16:03.753Z,27.38
2023-03-12T01:16:33.813Z,27.38
2023-03-12T01:17:03.790Z,27.36
2023-03-12T01:17:33.796Z,27.40
2023-03-12T01:18:03.915Z,27.39
2023-03-12T01:18:34.032Z,27.38
2023-03-12T01:19:04.017Z,27.33
2023-03-12T01:19:34.133Z,27.36
2023-03-12T01:20:04.249Z,27.38
2023-03-12T01:20:34.362Z,27.36
2023-03-12T01:21:04.389Z,27.38
2023-03-12T01:21:34.504Z,27.34
2023-03-12T01:22:04.624Z,27.39
2023-03-12T01:22:34.738Z,27.41
2023-03-12T01:23:04.894Z,27.38
2023-03-12T01:23:34.854Z,27.36
2023-03-12T01:24:04.991Z,27.38
2023-03-12T01:24:35.078Z,27.34
2023-03-12T01:25:05.097Z,27.33
2023-03-12T01:25:35.117Z,27.35
2023-03-12T01:26:05.140Z,27.34
2023-03-12T01:26:35.164Z,27.36
2023-03-12T01:27:05.194Z,27.36
2023-03-12T01:27:35.220Z,27.35
2023-03-12T01:28:05.246Z,27.36
2023-03-12T01:28:35.284Z,27.33
2023-03-12T01:29:05.329Z,27.40
2023-03-12T01:29:35.346Z,27.30
2023-03-12T01:30:05.372Z,27.28
2023-03-12T01:30:35.400Z,27.32
2023-03-12T01:31:05.444Z,27.30
2023-03-12T01:31:35.529Z,27.33
2023-03-12T01:32:05.558Z,27.33
2023-03-12T01:32:35.666Z,27.30
2023-03-12T01:33:05.678Z,27.27
2023-03-12T01:33:35.725Z,27.25
2023-03-12T01:34:05.730Z,27.33
2023-03-12T01:34:35.763Z,27.36
2023-03-12T01:35:05.828Z,27.31
2023-03-12T01:35:35.956Z,27.27
2023-03-12T01:36:06.048Z,27.28
2023-03-12T01:36:35.965Z,27.30
2023-03-12T01:37:05.971Z,27.34
2023-03-12T01:37:36.002Z,27.30
2023-03-12T01:38:06.036Z,27.30
2023-03-12T01:38:36.054Z,27.27
2023-03-12T01:39:06.090Z,27.31
2023-03-12T01:39:36.145Z,27.33
2023-03-12T01:40:06.156Z,27.28
2023-03-12T01:40:36.174Z,27.31
2023-03-12T01:41:06.255Z,27.25
2023-03-12T01:41:36.279Z,27.27
2023-03-12T01:42:06.294Z,27.22
2023-03-12T01:42:36.325Z,27.31
2023-03-12T01:43:06.357Z,27.25
2023-03-12T01:43:36.389Z,27.30
2023-03-12T01:44:06.408Z,27.28
2023-03-12T01:44:36.437Z,27.24
2023-03-12T01:45:06.466Z,27.25
2023-03-12T01:45:36.502Z,27.27
2023-03-12T01:46:06.578Z,27.32
2023-03-12T01:46:36.638Z,27.27
2023-03-12T01:47:06.638Z,27.22
2023-03-12T01:47:36.667Z,27.24
2023-03-12T01:48:06.711Z,27.24
2023-03-12T01:48:36.734Z,27.19
2023-03-12T01:49:06.753Z,27.25
2023-03-12T01:49:36.783Z,27.25
2023-03-12T01:50:06.809Z,27.22
2023-03-12T01:50:36.830Z,27.20
2023-03-12T01:51:06.886Z,27.22
2023-03-12T01:51:36.909Z,27.20
2023-03-12T01:52:06.917Z,27.28
2023-03-12T01:52:36.958Z,27.22
2023-03-12T01:53:06.972Z,27.25
2023-03-12T01:53:37.002Z,27.16
2023-03-12T01:54:07.021Z,27.17
2023-03-12T01:54:37.053Z,27.20
2023-03-12T01:55:07.095Z,27.26
2023-03-12T01:55:37.104Z,27.19
2023-03-12T01:56:07.127Z,27.22
2023-03-12T01:56:37.161Z,27.24
2023-03-12T01:57:07.174Z,27.20
2023-03-12T01:57:37.206Z,27.24
2023-03-12T01:58:07.240Z,27.22
2023-03-12T01:58:37.261Z,27.24
2023-03-12T01:59:07.287Z,27.24
2023-03-12T01:59:37.312Z,27.19
2023-03-12T02:00:07.360Z,27.17
2023-03-12T02:00:37.375Z,27.22
2023-03-12T02:01:07.450Z,27.22
2023-03-12T02:01:37.480Z,27.24
2023-03-12T02:02:07.539Z,27.20
2023-03-12T02:02:37.535Z,27.19
2023-03-12T02:03:07.562Z,27.28
2023-03-12T02:03:37.647Z,27.24
2023-03-12T02:04:07.708Z,27.25
2023-03-12T02:04:37.740Z,27.17
2023-03-12T02:05:07.763Z,27.20
2023-03-12T02:05:37.783Z,27.20
2023-03-12T02:06:07.813Z,27.17
2023-03-12T02:06:37.836Z,27.22
2023-03-12T02:07:07.859Z,27.22
2023-03-12T02:07:37.893Z,27.25
2023-03-12T02:08:07.925Z,27.17
2023-03-12T02:08:37.945Z,27.22
2023-03-12T02:09:07.966Z,27.24
2023-03-12T02:09:37.991Z,27.22
2023-03-12T02:10:08.017Z,27.24
2023-03-12T02:10:38.052Z,27.20
2023-03-12T02:11:08.080Z,27.26
2023-03-12T02:11:38.104Z,27.16
2023-03-12T02:12:08.132Z,27.24
2023-03-12T02:12:38.170Z,27.15
2023-03-12T02:13:08.195Z,27.16
2023-03-12T02:13:38.231Z,27.19
2023-03-12T02:14:08.258Z,27.17
2023-03-12T02:14:38.287Z,27.24
2023-03-12T02:15:08.295Z,27.17
2023-03-12T02:15:38.423Z,27.24
2023-03-12T02:16:08.554Z,27.16
2023-03-12T02:16:38.582Z,27.17
2023-03-12T02:17:08.570Z,27.17
2023-03-12T02:17:38.702Z,27.22
2023-03-12T02:18:08.791Z,27.17
2023-03-12T02:18:38.911Z,27.19
2023-03-12T02:19:08.896Z,27.20
2023-03-12T02:19:39.009Z,27.19
2023-03-12T02:20:09.122Z,27.15
2023-03-12T02:20:39.246Z,27.17
2023-03-12T02:21:09.354Z,27.17
2023-03-12T02:21:39.466Z,27.12
2023-03-12T02:22:09.578Z,27.12
2023-03-12T02:22:39.694Z,27.16
2023-03-12T02:23:09.804Z,27.15
2023-03-12T02:23:39.915Z,27.16
2023-03-12T02:24:10.026Z,27.17
2023-03-12T02:24:40.147Z,27.11
2023-03-12T02:25:10.147Z,27.16
2023-03-12T02:25:40.179Z,27.20
2023-03-12T02:26:10.207Z,27.24
2023-03-12T02:26:40.228Z,27.17
2023-03-12T02:27:10.256Z,27.19
2023-03-12T02:27:40.280Z,27.16
2023-03-12T02:28:10.307Z,27.20
2023-03-12T02:28:40.345Z,27.20
2023-03-12T02:29:10.372Z,27.19
2023-03-12T02:29:40.394Z,27.15
2023-03-12T02:30:10.418Z,27.19
2023-03-12T02:30:40.452Z,27.20
2023-03-12T02:31:10.480Z,27.16
2023-03-12T02:31:40.561Z,27.12
2023-03-12T02:32:10.565Z,27.17
2023-03-12T02:32:40.677Z,27.15
2023-03-12T02:33:10.705Z,27.19
2023-03-12T02:33:40.730Z,27.19
2023-03-12T02:34:10.769Z,27.14
2023-03-12T02:34:40.798Z,27.15
2023-03-12T02:35:10.826Z,27.18
2023-03-12T02:35:40.864Z,27.14
2023-03-12T02:36:10.964Z,27.15
2023-03-12T02:36:40.993Z,27.15
2023-03-12T02:37:11.008Z,27.14
2023-03-12T02:37:41.040Z,27.19
2023-03-12T02:38:11.068Z,27.18
2023-03-12T02:38:41.094Z,27.21
2023-03-12T02:39:11.126Z,27.18
2023-03-12T02:39:41.149Z,27.18
2023-03-12T02:40:11.170Z,27.15
2023-03-12T02:40:41.198Z,27.20
2023-03-12T02:41:11.228Z,27.20
2023-03-12T02:41:41.256Z,27.21
2023-03-12T02:42:11.275Z,27.18
2023-03-12T02:42:41.301Z,27.19
2023-03-12T02:43:11.325Z,27.22
2023-03-12T02:43:41.359Z,27.17
2023-03-12T02:44:11.383Z,27.22
2023-03-12T02:44:41.409Z,27.20
2023-03-12T02:45:11.441Z,27.22
2023-03-12T02:45:41.503Z,27.22
2023-03-12T02:46:11.550Z,27.20
2023-03-12T02:46:41.544Z,27.22
2023-03-12T02:47:11.573Z,27.22
2023-03-12T02:47:41.596Z,27.21
2023-03-12T02:48:11.638Z,27.20
2023-03-12T02:48:41.648Z,27.18
2023-03-12T02:49:11.672Z,27.25
2023-03-12T02:49:41.703Z,27.20
2023-03-12T02:50:11.729Z,27.25
2023-03-12T02:50:41.761Z,27.21
2023-03-12T02:51:11.783Z,27.23
2023-03-12T02:51:41.815Z,27.21
2023-03-12T02:52:11.849Z,27.23
2023-03-12T02:52:41.872Z,27.20
2023-03-12T02:53:11.898Z,27.22
2023-03-12T02:53:41.924Z,27.21
2023-03-12T02:54:11.971Z,27.21
2023-03-12T02:54:41.982Z,27.17
2023-03-12T02:55:12.009Z,27.25
2023-03-12T02:55:42.035Z,27.20
2023-03-12T02:56:12.056Z,27.18
2023-03-12T02:56:42.080Z,27.18
2023-03-12T02:57:12.109Z,27.22
2023-03-12T02:57:42.132Z,27.17
2023-03-12T02:58:12.164Z,27.20
2023-03-12T02:58:42.186Z,27.23
2023-03-12T02:59:12.223Z,27.15
2023-03-12T02:59:42.250Z,27.25
2023-03-12T03:00:12.281Z,27.25
2023-03-12T03:00:42.306Z,27.18
2023-03-12T03:01:12.363Z,27.15
2023-03-12T03:01:42.426Z,27.10
2023-03-12T03:02:12.444Z,27.17
2023-03-12T03:02:42.501Z,27.15
2023-03-12T03:03:12.514Z,27.14
2023-03-12T03:03:42.596Z,27.17
2023-03-12T03:04:12.732Z,27.10
2023-03-12T03:04:42.757Z,27.15
2023-03-12T03:05:12.780Z,27.12
2023-03-12T03:05:42.805Z,27.11
2023-03-12T03:06:12.830Z,27.17
2023-03-12T03:06:42.858Z,27.09
2023-03-12T03:07:12.885Z,27.19
2023-03-12T03:07:42.907Z,27.15
2023-03-12T03:08:12.930Z,27.14
2023-03-12T03:08:42.961Z,27.12
2023-03-12T03:09:12.991Z,27.07
2023-03-12T03:09:43.016Z,27.12
2023-03-12T03:10:13.042Z,27.07
2023-03-12T03:10:43.071Z,27.12
2023-03-12T03:11:13.090Z,27.09
2023-03-12T03:11:43.111Z,27.12
2023-03-12T03:12:13.140Z,27.06
2023-03-12T03:12:43.167Z,27.11
2023-03-12T03:13:13.189Z,27.09
2023-03-12T03:13:43.218Z,27.07
2023-03-12T03:14:13.246Z,27.12
2023-03-12T03:14:43.295Z,27.12
2023-03-12T03:15:13.275Z,27.09
2023-03-12T03:15:43.444Z,27.09
2023-03-12T03:16:13.621Z,27.12
2023-03-12T03:16:43.531Z,27.07
2023-03-12T03:17:13.732Z,27.09
2023-03-12T03:17:43.687Z,27.14
2023-03-12T03:18:13.804Z,27.07
2023-03-12T03:18:43.936Z,27.12
2023-03-12T03:19:13.934Z,27.14
2023-03-12T03:19:44.028Z,27.04
2023-03-12T03:20:14.145Z,27.14
2023-03-12T03:20:44.263Z,27.12
2023-03-12T03:21:14.367Z,27.09
2023-03-12T03:21:44.521Z,27.14
2023-03-12T03:22:14.596Z,27.09
2023-03-12T03:22:44.710Z,27.10
2023-03-12T03:23:14.828Z,27.14
2023-03-12T03:23:44.936Z,27.10
2023-03-12T03:24:15.089Z,27.06
2023-03-12T03:24:45.064Z,27.09
2023-03-12T03:25:15.078Z,27.07
2023-03-12T03:25:45.110Z,27.09
2023-03-12T03:26:15.131Z,27.12
2023-03-12T03:26:45.157Z,27.10
2023-03-12T03:27:15.191Z,27.10
2023-03-12T03:27:45.209Z,27.06
2023-03-12T03:28:15.233Z,27.10
2023-03-12T03:28:45.268Z,27.09
2023-03-12T03:29:15.338Z,27.09
2023-03-12T03:29:45.366Z,27.09
2023-03-12T03:30:15.399Z,27.09
2023-03-12T03:30:45.443Z,27.10
2023-03-12T03:31:15.526Z,27.15
2023-03-12T03:31:45.541Z,27.09
2023-03-12T03:32:15.662Z,27.12
2023-03-12T03:32:45.742Z,27.15
2023-03-12T03:33:15.748Z,27.15
2023-03-12T03:33:45.786Z,27.18
2023-03-12T03:34:15.828Z,27.12
2023-03-12T03:34:45.831Z,27.13
2023-03-12T03:35:15.862Z,27.15
2023-03-12T03:35:45.968Z,27.10
2023-03-12T03:36:16.020Z,27.09
2023-03-12T03:36:46.013Z,27.15
2023-03-12T03:37:16.041Z,27.17
2023-03-12T03:37:46.062Z,27.15
2023-03-12T03:38:16.093Z,27.12
2023-03-12T03:38:46.119Z,27.12
2023-03-12T03:39:16.142Z,27.14
2023-03-12T03:39:46.173Z,27.15
2023-03-12T03:40:16.206Z,27.12
2023-03-12T03:40:46.241Z,27.12
2023-03-12T03:41:16.263Z,27.12
2023-03-12T03:41:46.285Z,27.09
2023-03-12T03:42:16.310Z,27.10
2023-03-12T03:42:46.333Z,27.10
2023-03-12T03:43:16.357Z,27.14
2023-03-12T03:43:46.379Z,27.09
2023-03-12T03:44:16.401Z,27.05
2023-03-12T03:44:46.433Z,27.15
2023-03-12T03:45:16.458Z,27.10
2023-03-12T03:45:46.666Z,27.12
2023-03-12T03:46:16.706Z,27.13
2023-03-12T03:46:46.668Z,27.09
2023-03-12T03:47:16.705Z,27.17
2023-03-12T03:47:46.726Z,27.07
2023-03-12T03:48:16.756Z,27.12
2023-03-12T03:48:46.779Z,27.12
2023-03-12T03:49:16.817Z,27.15
2023-03-12T03:49:46.859Z,27.10
2023-03-12T03:50:16.860Z,27.05
2023-03-12T03:50:46.878Z,27.09
2023-03-12T03:51:16.907Z,27.09
2023-03-12T03:51:46.937Z,27.10
2023-03-12T03:52:16.957Z,27.13
2023-03-12T03:52:46.978Z,27.07
2023-03-12T03:53:17.002Z,27.15
2023-03-12T03:53:47.033Z,27.10
2023-03-12T03:54:17.071Z,27.10
2023-03-12T03:54:47.094Z,27.07
2023-03-12T03:55:17.111Z,27.07
2023-03-12T03:55:47.138Z,27.13
2023-03-12T03:56:17.160Z,27.09
2023-03-12T03:56:47.187Z,27.12
2023-03-12T03:57:17.227Z,27.04
2023-03-12T03:57:47.265Z,27.12
2023-03-12T03:58:17.285Z,27.08
2023-03-12T03:58:47.335Z,27.15
2023-03-12T03:59:17.336Z,27.10
2023-03-12T03:59:47.378Z,27.13
2023-03-12T04:00:17.390Z,27.09
2023-03-12T04:00:47.418Z,27.09
2023-03-12T04:01:17.438Z,27.10
2023-03-12T04:01:47.474Z,27.09
2023-03-12T04:02:17.493Z,27.10
2023-03-12T04:02:47.515Z,27.07
2023-03-12T04:03:17.607Z,27.13
2023-03-12T04:03:47.642Z,27.07
2023-03-12T04:04:17.678Z,27.07
2023-03-12T04:04:47.693Z,27.07
2023-03-12T04:05:17.816Z,27.05
2023-03-12T04:05:47.899Z,27.09
2023-03-12T04:06:17.930Z,27.10
2023-03-12T04:06:47.957Z,27.08
2023-03-12T04:07:17.980Z,27.09
2023-03-12T04:07:48.006Z,27.11
2023-03-12T04:08:18.032Z,27.10
2023-03-12T04:08:48.059Z,27.07
2023-03-12T04:09:18.101Z,27.08
2023-03-12T04:09:48.111Z,27.08
2023-03-12T04:10:18.133Z,27.05
2023-03-12T04:10:48.155Z,27.06
2023-03-12T04:11:18.182Z,27.09
2023-03-12T04:11:48.207Z,27.10
2023-03-12T04:12:18.229Z,27.05
2023-03-12T04:12:48.249Z,27.09
2023-03-12T04:13:18.276Z,27.10
2023-03-12T04:13:48.311Z,27.04
2023-03-12T04:14:18.322Z,27.13
2023-03-12T04:14:48.352Z,27.10
2023-03-12T04:15:18.470Z,27.13
2023-03-12T04:15:48.610Z,27.01
2023-03-12T04:16:18.733Z,27.04
2023-03-12T04:16:48.601Z,27.04
2023-03-12T04:17:18.708Z,27.10
2023-03-12T04:17:48.906Z,27.05
2023-03-12T04:18:19.006Z,27.02
2023-03-12T04:18:48.980Z,27.06
2023-03-12T04:19:19.094Z,27.10
2023-03-12T04:19:49.208Z,27.02
2023-03-12T04:20:19.319Z,27.05
2023-03-12T04:20:49.460Z,26.96
2023-03-12T04:21:19.547Z,27.07
2023-03-12T04:21:49.656Z,27.02
2023-03-12T04:22:19.786Z,26.94
2023-03-12T04:22:49.896Z,27.01
2023-03-12T04:23:20.019Z,26.98
2023-03-12T04:23:50.152Z,27.01
2023-03-12T04:24:20.238Z,27.01
2023-03-12T04:24:50.358Z,27.02
2023-03-12T04:25:20.378Z,27.01
2023-03-12T04:25:50.403Z,26.99
2023-03-12T04:26:20.431Z,27.04
2023-03-12T04:26:50.458Z,26.94
2023-03-12T04:27:20.487Z,26.99
2023-03-12T04:27:50.509Z,26.98
2023-03-12T04:28:20.549Z,26.88
2023-03-12T04:28:50.573Z,26.95
2023-03-12T04:29:20.603Z,27.01
2023-03-12T04:29:50.634Z,26.93
2023-03-12T04:30:20.688Z,26.98
2023-03-12T04:30:50.687Z,26.98
2023-03-12T04:31:20.769Z,26.91
2023-03-12T04:31:50.826Z,26.95
2023-03-12T04:32:20.883Z,26.95
2023-03-12T04:32:50.909Z,26.95
2023-03-12T04:33:20.920Z,26.91
2023-03-12T04:33:50.938Z,26.96
2023-03-12T04:34:20.972Z,26.94
2023-03-12T04:34:51.004Z,26.90
2023-03-12T04:35:21.039Z,26.93
2023-03-12T04:35:51.103Z,26.91
2023-03-12T04:36:21.135Z,26.96
2023-03-12T04:36:51.134Z,26.90
2023-03-12T04:37:21.159Z,26.93
2023-03-12T04:37:51.197Z,26.90
2023-03-12T04:38:21.228Z,26.91
2023-03-12T04:38:51.259Z,26.99
2023-03-12T04:39:21.289Z,26.98
2023-03-12T04:39:51.330Z,26.99
2023-03-12T04:40:21.358Z,26.96
2023-03-12T04:40:51.380Z,26.91
2023-03-12T04:41:21.424Z,26.91
2023-03-12T04:41:51.448Z,26.96
2023-03-12T04:42:21.484Z,26.98
2023-03-12T04:42:51.508Z,27.01
2023-03-12T04:43:21.549Z,26.90
2023-03-12T04:43:51.576Z,26.93
2023-03-12T04:44:21.592Z,26.98
2023-03-12T04:44:51.674Z,26.98
2023-03-12T04:45:21.701Z,26.93
2023-03-12T04:45:51.722Z,26.88
2023-03-12T04:46:21.774Z,26.90
2023-03-12T04:46:51.877Z,26.90
2023-03-12T04:47:21.818Z,26.93
2023-03-12T04:47:51.829Z,26.96
2023-03-12T04:48:21.857Z,26.99
2023-03-12T04:48:51.870Z,26.93
2023-03-12T04:49:21.902Z,26.93
2023-03-12T04:49:51.941Z,26.93
2023-03-12T04:50:21.983Z,26.93
2023-03-12T04:50:52.007Z,26.99
2023-03-12T04:51:22.039Z,26.93
2023-03-12T04:51:52.090Z,26.95
2023-03-12T04:52:22.092Z,26.91
2023-03-12T04:52:52.114Z,26.90
2023-03-12T04:53:22.235Z,27.01
2023-03-12T04:53:52.156Z,26.94
2023-03-12T04:54:22.174Z,26.96
2023-03-12T04:54:52.221Z,26.96
2023-03-12T04:55:22.244Z,26.96
2023-03-12T04:55:52.276Z,26.96
2023-03-12T04:56:22.299Z,26.93
2023-03-12T04:56:52.332Z,26.91
2023-03-12T04:57:22.353Z,26.95
2023-03-12T04:57:52.375Z,26.93
2023-03-12T04:58:22.410Z,26.97
2023-03-12T04:58:52.427Z,26.96
2023-03-12T04:59:22.449Z,26.91
2023-03-12T04:59:52.496Z,26.94
2023-03-12T05:00:22.525Z,26.99
2023-03-12T05:00:52.544Z,26.99
2023-03-12T05:01:22.571Z,26.99
2023-03-12T05:01:52.597Z,26.94
2023-03-12T05:02:22.624Z,26.93
2023-03-12T05:02:52.741Z,26.94
2023-03-12T05:03:22.740Z,26.99
2023-03-12T05:03:52.838Z,26.97
2023-03-12T05:04:22.891Z,26.96
2023-03-12T05:04:52.918Z,26.99
2023-03-12T05:05:22.955Z,26.94
2023-03-12T05:05:52.966Z,26.91
2023-03-12T05:06:22.989Z,26.93
2023-03-12T05:06:53.016Z,26.99
2023-03-12T05:07:23.074Z,27.01
2023-03-12T05:07:53.075Z,26.94
2023-03-12T05:08:23.097Z,26.98
2023-03-12T05:08:53.123Z,27.02
2023-03-12T05:09:23.149Z,27.01
2023-03-12T05:09:53.208Z,26.92
2023-03-12T05:10:23.219Z,26.94
2023-03-12T05:10:53.261Z,27.02
2023-03-12T05:11:23.279Z,27.02
2023-03-12T05:11:53.298Z,26.97
2023-03-12T05:12:23.321Z,26.99
2023-03-12T05:12:53.350Z,26.95
2023-03-12T05:13:23.385Z,27.00
2023-03-12T05:13:53.402Z,26.97
2023-03-12T05:14:23.439Z,26.97
2023-03-12T05:14:53.473Z,26.99
2023-03-12T05:15:23.465Z,26.96
2023-03-12T05:15:53.648Z,27.05
2023-03-12T05:16:23.706Z,26.94
2023-03-12T05:16:53.688Z,26.96
2023-03-12T05:17:23.796Z,27.02
2023-03-12T05:17:54.907Z,27.01
2023-03-12T05:18:23.944Z,26.95
2023-03-12T05:18:54.065Z,26.99
2023-03-12T05:19:24.177Z,27.04
2023-03-12T05:19:54.167Z,27.01
2023-03-12T05:20:24.282Z,26.97
2023-03-12T05:20:54.394Z,26.97
2023-03-12T05:21:24.513Z,27.01
2023-03-12T05:21:54.619Z,27.01
2023-03-12T05:22:24.734Z,26.97
2023-03-12T05:22:54.869Z,27.01
2023-03-12T05:23:24.954Z,27.02
2023-03-12T05:23:55.073Z,26.99
2023-03-12T05:24:25.178Z,26.97
2023-03-12T05:24:55.320Z,27.04
2023-03-12T05:25:25.350Z,27.05
2023-03-12T05:25:55.369Z,27.02
2023-03-12T05:26:25.405Z,26.99
2023-03-12T05:26:55.427Z,27.02
2023-03-12T05:27:25.463Z,27.02
2023-03-12T05:27:55.481Z,27.07
2023-03-12T05:28:25.508Z,27.02
2023-03-12T05:28:55.571Z,27.00
2023-03-12T05:29:25.570Z,26.99
2023-03-12T05:29:55.602Z,26.99
2023-03-12T05:30:25.621Z,27.02
2023-03-12T05:30:55.661Z,27.02
2023-03-12T05:31:25.726Z,27.02
2023-03-12T05:31:55.865Z,27.03
2023-03-12T05:32:25.834Z,27.00
2023-03-12T05:32:55.894Z,26.99
2023-03-12T05:33:25.891Z,27.01
2023-03-12T05:33:55.921Z,27.05
2023-03-12T05:34:25.942Z,27.04
2023-03-12T05:34:55.969Z,26.97
2023-03-12T05:35:26.000Z,26.99
2023-03-12T05:35:56.087Z,26.99
2023-03-12T05:36:26.105Z,26.97
2023-03-12T05:36:56.127Z,27.00
2023-03-12T05:37:26.142Z,27.01
2023-03-12T05:37:56.170Z,27.01
2023-03-12T05:38:26.212Z,26.99
2023-03-12T05:38:56.222Z,27.01
2023-03-12T05:39:26.243Z,26.94
2023-03-12T05:39:56.271Z,27.01
2023-03-12T05:40:26.296Z,26.95
2023-03-12T05:40:56.324Z,26.97
2023-03-12T05:41:26.365Z,26.94
2023-03-12T05:41:56.381Z,26.95
2023-03-12T05:42:26.414Z,26.91
2023-03-12T05:42:56.436Z,26.93
2023-03-12T05:43:26.454Z,26.91
2023-03-12T05:43:56.549Z,26.97
2023-03-12T05:44:26.542Z,26.97
2023-03-12T05:44:56.573Z,26.93
2023-03-12T05:45:26.862Z,27.01
2023-03-12T05:45:56.787Z,26.96
2023-03-12T05:46:26.697Z,27.02
2023-03-12T05:46:58.944Z,26.96
2023-03-12T05:47:26.756Z,27.01
2023-03-12T05:47:56.784Z,27.01
2023-03-12T05:48:26.826Z,26.96
2023-03-12T05:48:56.854Z,26.97
2023-03-12T05:49:26.880Z,26.96
2023-03-12T05:49:56.903Z,26.97
2023-03-12T05:50:26.928Z,26.88
2023-03-12T05:50:56.988Z,26.97
2023-03-12T05:51:26.999Z,26.97
2023-03-12T05:51:57.026Z,26.89
2023-03-12T05:52:27.050Z,26.92
2023-03-12T05:52:57.074Z,26.97
2023-03-12T05:53:27.099Z,26.99
2023-03-12T05:53:57.156Z,26.96
2023-03-12T05:54:27.160Z,26.94
2023-03-12T05:54:57.185Z,27.02
2023-03-12T05:55:27.210Z,26.99
2023-03-12T05:55:57.242Z,27.02
2023-03-12T05:56:27.263Z,26.94
2023-03-12T05:56:57.292Z,27.01
2023-03-12T05:57:27.308Z,26.97
2023-03-12T05:57:57.338Z,26.95
2023-03-12T05:58:27.369Z,27.03
2023-03-12T05:58:57.404Z,26.99
2023-03-12T05:59:27.428Z,26.94
2023-03-12T05:59:57.455Z,27.01
2023-03-12T06:00:27.477Z,26.94
2023-03-12T06:00:57.519Z,26.95
2023-03-12T06:01:27.581Z,26.99
2023-03-12T06:01:57.584Z,26.97
2023-03-12T06:02:27.724Z,26.94
2023-03-12T06:02:57.643Z,27.01
2023-03-12T06:03:27.719Z,26.97
2023-03-12T06:03:57.764Z,26.95
2023-03-12T06:04:27.776Z,26.95
2023-03-12T06:04:57.805Z,26.99
2023-03-12T06:05:27.840Z,26.94
2023-03-12T06:05:57.964Z,27.01
2023-03-12T06:06:27.871Z,26.99
2023-03-12T06:06:57.889Z,26.99
2023-03-12T06:07:27.924Z,27.00
2023-03-12T06:07:57.956Z,26.97
2023-03-12T06:08:27.963Z,27.02
2023-03-12T06:08:57.994Z,26.95
2023-03-12T06:09:28.040Z,27.02
2023-03-12T06:09:58.042Z,27.02
2023-03-12T06:10:28.073Z,27.01
2023-03-12T06:10:58.117Z,26.99
2023-03-12T06:11:28.139Z,27.01
2023-03-12T06:11:58.161Z,27.03
2023-03-12T06:12:28.188Z,26.99
2023-03-12T06:12:58.215Z,26.99
2023-03-12T06:13:28.236Z,26.94
2023-03-12T06:13:58.258Z,26.97
2023-03-12T06:14:28.281Z,27.00
2023-03-12T06:14:58.311Z,27.02
2023-03-12T06:15:28.405Z,26.94
2023-03-12T06:15:58.549Z,26.92
2023-03-12T06:16:28.561Z,26.95
2023-03-12T06:16:58.617Z,26.99
2023-03-12T06:17:28.606Z,26.97
2023-03-12T06:17:58.620Z,26.99
2023-03-12T06:18:28.708Z,27.02
2023-03-12T06:18:58.828Z,26.99
2023-03-12T06:19:28.952Z,26.99
2023-03-12T06:19:59.056Z,26.95
2023-03-12T06:20:29.043Z,26.99
2023-03-12T06:20:59.209Z,26.97
2023-03-12T06:21:29.197Z,27.00
2023-03-12T06:21:59.308Z,26.97
2023-03-12T06:22:29.417Z,27.05
2023-03-12T06:22:59.531Z,27.04
2023-03-12T06:23:29.636Z,27.03
2023-03-12T06:23:59.761Z,27.02
2023-03-12T06:24:29.863Z,26.99
2023-03-12T06:24:59.889Z,26.99
2023-03-12T06:25:29.887Z,27.03
2023-03-12T06:25:59.950Z,26.97
2023-03-12T06:26:30.026Z,27.00
2023-03-12T06:27:00.031Z,27.00